Time;durP1;ratioP1;P1;durP2;ratioP2;P2;SDS_P1;SDS_P2;PMS_P1;PMS_P2;Temp;Humidity;BMP_temperature;BMP_pressure;BME280_temperature;BME280_humidity;BME280_pressure;Samples;Min_cycle;Max_cycle;Signal;HPM_P1;HPM_P2
2023/03/04 00:01:49;;;;;;;10.77;2.45;;;7.00;99.90;;;;;;4999841;28;20100;-43
2023/03/04 00:04:15;;;;;;;11.38;1.90;;;6.90;99.90;;;;;;4999047;28;20511;-43
2023/03/04 00:06:40;;;;;;;13.35;2.28;;;6.90;99.90;;;;;;4999163;28;20366;-43
2023/03/04 00:09:06;;;;;;;14.52;2.67;;;6.90;99.90;;;;;;5000053;28;20579;-43
2023/03/04 00:11:32;;;;;;;15.63;2.22;;;6.90;99.90;;;;;;4999614;28;20583;-43
2023/03/04 00:13:57;;;;;;;14.18;2.53;;;6.90;99.90;;;;;;5000159;28;20033;-43
2023/03/04 00:16:27;;;;;;;10.00;2.05;;;6.90;99.90;;;;;;4999856;28;20808;-43
2023/03/04 00:18:54;;;;;;;11.10;2.38;;;6.90;99.90;;;;;;4999629;28;20052;-44
2023/03/04 00:21:20;;;;;;;13.75;2.50;;;6.90;99.90;;;;;;4998952;28;20049;-42
2023/03/04 00:23:45;;;;;;;11.65;1.98;;;6.90;99.90;;;;;;4999645;28;20030;-43
2023/03/04 00:26:12;;;;;;;13.95;2.75;;;6.90;99.90;;;;;;4997967;28;20109;-43
2023/03/04 00:28:38;;;;;;;7.13;2.05;;;6.90;99.90;;;;;;5000813;28;20025;-43
2023/03/04 00:31:05;;;;;;;13.30;2.53;;;6.90;99.90;;;;;;5002370;28;20084;-42
2023/03/04 00:33:30;;;;;;;11.60;2.03;;;6.90;99.90;;;;;;5002925;28;20891;-42
2023/03/04 00:35:56;;;;;;;17.45;2.92;;;7.00;99.90;;;;;;5003529;28;20117;-42
2023/03/04 00:38:22;;;;;;;11.23;1.90;;;7.00;99.90;;;;;;5002663;28;20362;-42
2023/03/04 00:40:47;;;;;;;12.77;2.95;;;7.00;99.90;;;;;;5002660;28;20490;-43
2023/03/04 00:43:13;;;;;;;12.73;2.20;;;6.90;99.90;;;;;;5002559;28;20383;-42
2023/03/04 00:45:38;;;;;;;11.43;2.30;;;7.00;99.90;;;;;;5002807;28;20112;-42
2023/03/04 00:48:04;;;;;;;9.32;2.00;;;6.90;99.90;;;;;;5001473;28;20041;-43
2023/03/04 00:50:33;;;;;;;9.75;2.05;;;6.90;99.90;;;;;;5003264;28;20052;-42
2023/03/04 00:52:58;;;;;;;9.32;2.13;;;6.90;99.90;;;;;;5003180;28;20180;-43
2023/03/04 00:55:24;;;;;;;9.88;2.50;;;6.90;99.90;;;;;;5000794;28;20592;-42
2023/03/04 00:57:49;;;;;;;10.95;2.33;;;7.00;99.90;;;;;;5003005;28;20080;-42
2023/03/04 01:00:18;;;;;;;10.52;2.15;;;6.90;99.90;;;;;;5001881;28;20033;-43
2023/03/04 01:02:44;;;;;;;10.20;2.28;;;6.90;99.90;;;;;;5002855;28;20041;-44
2023/03/04 01:05:12;;;;;;;8.77;1.98;;;6.90;99.90;;;;;;5001913;28;20073;-44
2023/03/04 01:07:37;;;;;;;5.13;1.70;;;6.90;99.90;;;;;;5001716;28;20149;-41
2023/03/04 01:10:05;;;;;;;4.63;1.70;;;6.90;99.90;;;;;;5002135;28;20026;-42
2023/03/04 01:12:31;;;;;;;9.10;2.42;;;6.90;99.90;;;;;;5002935;28;20680;-42
2023/03/04 01:14:56;;;;;;;10.55;2.35;;;6.90;99.90;;;;;;5001870;28;20034;-43
2023/03/04 01:17:22;;;;;;;9.98;2.67;;;6.90;99.90;;;;;;5002166;28;20744;-42
2023/03/04 01:19:48;;;;;;;12.13;2.30;;;6.90;99.90;;;;;;5002718;28;20022;-43
2023/03/04 01:22:15;;;;;;;8.88;1.92;;;6.90;99.90;;;;;;5001202;28;20505;-43
2023/03/04 01:24:41;;;;;;;11.05;1.95;;;6.90;99.90;;;;;;5002425;28;20026;-43
2023/03/04 01:27:07;;;;;;;9.98;2.45;;;6.90;99.90;;;;;;5002228;28;20126;-42
2023/03/04 01:29:32;;;;;;;8.25;1.95;;;6.90;99.90;;;;;;5001123;28;20588;-42
2023/03/04 01:31:58;;;;;;;10.38;2.03;;;6.90;99.90;;;;;;5001199;28;20030;-43
2023/03/04 01:34:23;;;;;;;8.80;1.90;;;6.90;99.90;;;;;;5001254;28;20037;-43
2023/03/04 01:36:49;;;;;;;8.07;1.85;;;6.90;99.90;;;;;;5000966;28;20034;-42
2023/03/04 01:39:17;;;;;;;12.45;1.85;;;6.90;99.90;;;;;;5001485;28;20026;-43
2023/03/04 01:41:49;;;;;;;5.38;1.70;;;6.90;99.90;;;;;;5003347;28;20164;-44
2023/03/04 01:44:14;;;;;;;7.45;1.88;;;6.90;99.90;;;;;;5001374;28;20022;-44
2023/03/04 01:46:46;;;;;;;7.07;1.90;;;6.90;99.90;;;;;;5003040;28;20029;-43
2023/03/04 01:49:13;;;;;;;10.40;2.00;;;6.90;99.90;;;;;;5002692;28;20026;-43
2023/03/04 01:51:41;;;;;;;5.88;1.75;;;6.90;99.90;;;;;;5002114;28;20038;-43
2023/03/04 01:54:09;;;;;;;15.00;3.20;;;6.90;99.90;;;;;;5002102;28;20026;-41
2023/03/04 01:56:37;;;;;;;9.23;2.00;;;6.90;99.90;;;;;;5002204;28;20058;-41
2023/03/04 01:59:23;;;;;;;8.77;1.85;;;6.90;99.90;;;;;;5001861;28;20026;-43
2023/03/04 02:01:52;;;;;;;9.50;1.70;;;6.90;99.90;;;;;;4994296;28;20025;-42
2023/03/04 02:04:21;;;;;;;9.43;1.77;;;6.90;99.90;;;;;;5001573;28;20028;-42
2023/03/04 02:06:47;;;;;;;11.25;2.40;;;6.90;99.90;;;;;;5002026;28;20034;-43
2023/03/04 02:09:14;;;;;;;7.03;1.95;;;6.90;99.90;;;;;;5001883;28;20097;-43
2023/03/04 02:11:42;;;;;;;13.30;2.72;;;6.90;99.90;;;;;;5001036;28;20030;-41
2023/03/04 02:14:09;;;;;;;8.15;2.35;;;6.90;99.90;;;;;;5000773;28;20830;-43
2023/03/04 02:16:37;;;;;;;11.82;2.40;;;6.80;99.90;;;;;;5002079;28;20036;-43
2023/03/04 02:19:12;;;;;;;7.90;1.85;;;6.80;99.90;;;;;;5000687;28;20060;-43
2023/03/04 02:21:50;;;;;;;12.23;2.20;;;6.80;99.90;;;;;;5000631;28;20056;-43
2023/03/04 02:24:39;;;;;;;11.55;2.35;;;6.80;99.90;;;;;;5001598;28;20056;-42
2023/03/04 02:27:08;;;;;;;10.32;2.17;;;6.80;99.90;;;;;;4998391;28;20026;-42
2023/03/04 02:29:34;;;;;;;11.40;1.90;;;6.80;99.90;;;;;;5001422;28;20371;-43
2023/03/04 02:31:59;;;;;;;13.32;2.10;;;6.80;99.90;;;;;;5000727;28;20042;-43
2023/03/04 02:34:33;;;;;;;11.32;1.80;;;6.80;99.90;;;;;;5000995;28;20029;-40
2023/03/04 02:37:00;;;;;;;9.38;1.73;;;6.80;99.90;;;;;;4999633;28;20110;-43
2023/03/04 02:39:54;;;;;;;8.20;2.00;;;6.80;99.90;;;;;;4999686;28;20026;-43
2023/03/04 02:42:20;;;;;;;11.10;1.55;;;6.80;99.90;;;;;;4974181;28;20037;-42
2023/03/04 02:44:49;;;;;;;7.15;1.40;;;6.80;99.90;;;;;;5000088;28;20030;-43
2023/03/04 02:47:17;;;;;;;9.05;1.20;;;6.80;99.90;;;;;;4999181;28;20144;-43
2023/03/04 02:49:43;;;;;;;5.93;1.60;;;6.80;99.90;;;;;;5000468;28;20524;-43
2023/03/04 02:52:23;;;;;;;7.68;1.38;;;6.80;99.90;;;;;;4999601;28;20038;-43
2023/03/04 02:54:49;;;;;;;6.45;1.85;;;6.80;99.90;;;;;;4999776;28;20053;-42
2023/03/04 02:57:14;;;;;;;5.55;1.90;;;6.90;99.90;;;;;;4999650;28;20029;-44
2023/03/04 02:59:41;;;;;;;8.02;1.67;;;6.90;99.90;;;;;;5000084;28;20026;-43
2023/03/04 03:02:10;;;;;;;7.78;1.67;;;6.90;99.90;;;;;;5000092;28;20064;-42
2023/03/04 03:04:37;;;;;;;7.63;1.65;;;6.90;99.90;;;;;;5000987;28;20794;-42
2023/03/04 03:07:03;;;;;;;6.75;1.60;;;6.90;99.90;;;;;;4998858;28;20480;-43
2023/03/04 03:09:29;;;;;;;6.60;1.63;;;6.80;99.90;;;;;;5000988;28;20030;-43
2023/03/04 03:11:54;;;;;;;7.93;1.40;;;6.80;99.90;;;;;;5000391;28;20037;-43
2023/03/04 03:14:20;;;;;;;3.72;1.17;;;6.80;99.90;;;;;;4999050;28;20033;-44
2023/03/04 03:16:45;;;;;;;7.63;1.45;;;6.90;99.90;;;;;;5000125;28;20045;-42
2023/03/04 03:19:11;;;;;;;8.60;1.77;;;6.80;99.90;;;;;;5000102;28;20040;-42
2023/03/04 03:21:37;;;;;;;7.88;1.67;;;6.80;99.90;;;;;;4999343;28;20566;-42
2023/03/04 03:24:02;;;;;;;6.93;1.35;;;6.80;99.90;;;;;;4999957;28;20532;-42
2023/03/04 03:26:28;;;;;;;10.77;1.85;;;6.80;99.90;;;;;;5000359;28;20651;-42
2023/03/04 03:28:53;;;;;;;7.53;1.23;;;6.80;99.90;;;;;;4999979;28;20022;-41
2023/03/04 03:31:19;;;;;;;11.45;1.77;;;6.80;99.90;;;;;;5000329;28;20654;-41
2023/03/04 03:33:44;;;;;;;8.48;1.50;;;6.80;99.90;;;;;;5000513;28;20100;-42
2023/03/04 03:36:10;;;;;;;7.40;1.52;;;6.80;99.90;;;;;;4999271;28;20704;-42
2023/03/04 03:38:36;;;;;;;5.25;1.13;;;6.80;99.90;;;;;;5000380;28;20030;-43
2023/03/04 03:41:01;;;;;;;6.47;1.40;;;6.90;99.90;;;;;;4999645;28;20113;-43
2023/03/04 03:43:27;;;;;;;11.43;2.05;;;6.90;99.90;;;;;;4998990;28;20137;-44
2023/03/04 03:45:53;;;;;;;8.38;2.28;;;6.90;99.90;;;;;;4999738;28;20069;-43
2023/03/04 03:48:18;;;;;;;11.80;1.90;;;6.80;99.90;;;;;;4999087;28;20057;-43
2023/03/04 03:50:44;;;;;;;7.00;1.58;;;6.80;99.90;;;;;;4999681;28;20141;-40
2023/03/04 03:53:10;;;;;;;8.73;1.60;;;6.80;99.90;;;;;;4999582;28;20048;-43
2023/03/04 03:55:36;;;;;;;9.68;1.70;;;6.80;99.90;;;;;;5000366;28;20497;-42
2023/03/04 03:58:07;;;;;;;8.05;1.63;;;6.80;99.90;;;;;;4999197;28;20033;-42
2023/03/04 04:00:33;;;;;;;12.35;1.80;;;6.80;99.90;;;;;;4990232;28;20053;-42
2023/03/04 04:03:05;;;;;;;10.50;1.98;;;6.80;99.90;;;;;;4998725;28;20440;-42
2023/03/04 04:05:30;;;;;;;7.50;1.48;;;6.80;99.90;;;;;;5004382;28;20029;-43
2023/03/04 04:07:56;;;;;;;8.25;1.50;;;6.70;99.90;;;;;;5004315;28;20495;-42
2023/03/04 04:10:21;;;;;;;3.67;1.25;;;6.70;99.90;;;;;;5002576;28;20040;-43
2023/03/04 04:12:47;;;;;;;4.22;1.25;;;6.70;99.90;;;;;;5003961;28;20077;-42
2023/03/04 04:15:13;;;;;;;6.22;1.55;;;6.70;99.90;;;;;;5003425;28;20076;-43
2023/03/04 04:17:38;;;;;;;11.52;1.85;;;6.70;99.90;;;;;;5003602;28;20033;-41
2023/03/04 04:20:05;;;;;;;6.38;1.55;;;6.70;99.90;;;;;;5003282;28;20081;-42
2023/03/04 04:22:31;;;;;;;7.35;1.65;;;6.80;99.90;;;;;;4984619;28;20569;-43
2023/03/04 04:24:56;;;;;;;7.97;1.48;;;6.80;99.90;;;;;;4997527;28;20030;-43
2023/03/04 04:27:22;;;;;;;7.15;1.88;;;6.70;99.90;;;;;;5003238;28;20037;-43
2023/03/04 04:29:50;;;;;;;7.78;1.77;;;6.70;99.90;;;;;;5004021;28;20425;-43
2023/03/04 04:32:16;;;;;;;9.52;1.67;;;6.70;99.90;;;;;;5001947;28;20382;-43
2023/03/04 04:34:41;;;;;;;15.18;1.85;;;6.70;99.90;;;;;;5003440;28;20030;-43
2023/03/04 04:37:07;;;;;;;7.05;1.77;;;6.70;99.90;;;;;;5003565;28;20080;-42
2023/03/04 04:39:33;;;;;;;8.50;1.73;;;6.70;99.90;;;;;;5003152;28;20037;-42
2023/03/04 04:41:58;;;;;;;4.97;1.20;;;6.70;99.90;;;;;;5003694;28;20037;-43
2023/03/04 04:44:24;;;;;;;7.88;1.75;;;6.70;99.90;;;;;;5003457;28;20499;-43
2023/03/04 04:46:49;;;;;;;7.47;1.15;;;6.70;99.90;;;;;;5002584;28;20033;-43
2023/03/04 04:49:15;;;;;;;6.68;1.38;;;6.70;99.90;;;;;;5003554;28;20026;-42
2023/03/04 04:51:40;;;;;;;8.48;1.30;;;6.70;99.90;;;;;;5003543;28;20049;-43
2023/03/04 04:54:09;;;;;;;5.88;1.00;;;6.60;99.90;;;;;;5002884;28;20085;-42
2023/03/04 04:56:35;;;;;;;9.15;1.40;;;6.60;99.90;;;;;;5002884;28;20858;-44
2023/03/04 04:59:07;;;;;;;7.63;1.55;;;6.70;99.90;;;;;;5002829;28;20029;-44
2023/03/04 05:01:35;;;;;;;4.60;1.17;;;6.60;99.90;;;;;;5002338;28;20092;-42
2023/03/04 05:04:01;;;;;;;5.22;1.10;;;6.60;99.90;;;;;;5001656;28;20549;-42
2023/03/04 05:06:27;;;;;;;5.18;1.33;;;6.60;99.90;;;;;;5001574;28;20115;-42
2023/03/04 05:08:52;;;;;;;10.90;2.20;;;6.70;99.90;;;;;;5001980;28;20026;-42
2023/03/04 05:11:21;;;;;;;7.55;1.27;;;6.60;99.90;;;;;;5001883;28;20026;-42
2023/03/04 05:13:47;;;;;;;6.35;1.05;;;6.60;99.90;;;;;;5012586;28;20076;-43
2023/03/04 05:16:14;;;;;;;9.20;1.75;;;6.60;99.90;;;;;;5011065;28;20022;-42
2023/03/04 05:18:39;;;;;;;7.60;1.33;;;6.60;99.90;;;;;;5002729;28;20092;-42
2023/03/04 05:21:06;;;;;;;5.32;1.20;;;6.60;99.90;;;;;;5001527;28;20469;-43
2023/03/04 05:23:35;;;;;;;6.60;1.42;;;6.60;99.90;;;;;;5002558;28;20026;-43
2023/03/04 05:26:01;;;;;;;4.88;1.30;;;6.60;99.90;;;;;;5000920;28;20026;-43
2023/03/04 05:28:27;;;;;;;8.57;1.35;;;6.60;99.90;;;;;;5001591;28;20136;-43
2023/03/04 05:30:53;;;;;;;6.10;1.10;;;6.60;99.90;;;;;;5002798;28;20056;-43
2023/03/04 05:33:19;;;;;;;7.45;1.30;;;6.60;99.90;;;;;;5002564;28;20017;-43
2023/03/04 05:35:47;;;;;;;8.77;1.20;;;6.60;99.90;;;;;;5002023;28;20438;-43
2023/03/04 05:38:15;;;;;;;4.63;1.35;;;6.60;99.90;;;;;;5001622;28;20018;-42
2023/03/04 05:40:40;;;;;;;6.03;1.40;;;6.60;99.90;;;;;;5002212;28;20764;-44
2023/03/04 05:43:07;;;;;;;5.18;1.20;;;6.60;99.90;;;;;;5000536;28;20073;-43
2023/03/04 05:45:33;;;;;;;5.25;1.15;;;6.60;99.90;;;;;;5002392;28;20501;-44
2023/03/04 05:48:02;;;;;;;10.77;1.95;;;6.60;99.90;;;;;;5001801;28;20068;-43
2023/03/04 05:50:27;;;;;;;6.70;1.35;;;6.50;99.90;;;;;;4981874;28;20475;-42
2023/03/04 05:52:56;;;;;;;8.55;1.35;;;6.50;99.90;;;;;;4996425;28;20088;-43
2023/03/04 05:55:22;;;;;;;9.60;1.38;;;6.50;99.90;;;;;;5002325;28;20070;-43
2023/03/04 05:57:47;;;;;;;5.13;1.42;;;6.50;99.90;;;;;;5001980;28;20042;-43
2023/03/04 06:00:17;;;;;;;11.02;2.28;;;6.50;99.90;;;;;;5001560;28;20037;-43
2023/03/04 06:02:43;;;;;;;7.63;1.38;;;6.50;99.90;;;;;;5001254;28;20026;-42
2023/03/04 06:05:11;;;;;;;6.38;1.08;;;6.50;99.90;;;;;;5001870;28;20120;-42
2023/03/04 06:07:36;;;;;;;7.47;1.17;;;6.40;99.90;;;;;;5000812;28;20411;-43
2023/03/04 06:10:02;;;;;;;4.85;1.00;;;6.50;99.90;;;;;;5000659;28;20026;-42
2023/03/04 06:12:28;;;;;;;7.75;1.27;;;6.50;99.90;;;;;;5000320;28;20084;-43
2023/03/04 06:14:54;;;;;;;7.22;1.20;;;6.50;99.90;;;;;;5001094;28;20389;-42
2023/03/04 06:17:20;;;;;;;5.32;1.27;;;6.50;99.90;;;;;;5000691;28;20034;-43
2023/03/04 06:19:46;;;;;;;5.60;1.00;;;6.50;99.90;;;;;;5002334;28;20433;-42
2023/03/04 06:22:12;;;;;;;3.50;1.45;;;6.60;99.90;;;;;;5001218;28;20042;-43
2023/03/04 06:24:47;;;;;;;5.88;1.10;;;6.50;99.90;;;;;;5001098;28;20018;-43
2023/03/04 06:27:12;;;;;;;4.32;0.95;;;6.60;99.90;;;;;;5000592;28;20377;-43
2023/03/04 06:29:41;;;;;;;7.10;1.45;;;6.60;99.90;;;;;;5001498;28;20029;-43
2023/03/04 06:32:13;;;;;;;4.18;0.90;;;6.60;99.90;;;;;;5001187;28;20065;-42
2023/03/04 06:34:45;;;;;;;4.78;0.93;;;6.60;99.90;;;;;;5001076;28;20026;-43
2023/03/04 06:37:10;;;;;;;3.10;0.70;;;6.60;99.90;;;;;;5000786;28;20093;-43
2023/03/04 06:39:36;;;;;;;4.20;0.90;;;6.70;99.90;;;;;;5000717;28;20537;-42
2023/03/04 06:42:10;;;;;;;7.15;1.42;;;6.70;99.90;;;;;;5001567;28;20044;-44
2023/03/04 06:44:36;;;;;;;4.07;1.00;;;6.70;99.90;;;;;;5000890;28;20367;-42
2023/03/04 06:47:02;;;;;;;2.47;1.00;;;6.70;99.90;;;;;;5000161;28;20474;-43
2023/03/04 06:49:27;;;;;;;6.80;1.20;;;6.70;99.90;;;;;;5000862;28;20050;-41
2023/03/04 06:51:53;;;;;;;3.85;0.90;;;6.60;99.90;;;;;;5000692;28;20485;-43
2023/03/04 06:54:19;;;;;;;4.53;0.90;;;6.60;99.90;;;;;;5000412;28;20017;-43
2023/03/04 06:56:44;;;;;;;4.95;1.10;;;6.60;99.90;;;;;;5001201;28;20573;-43
2023/03/04 06:59:10;;;;;;;3.78;0.88;;;6.70;99.90;;;;;;5000350;28;20037;-43
2023/03/04 07:01:36;;;;;;;4.68;0.93;;;6.70;99.90;;;;;;5000949;28;20030;-42
2023/03/04 07:04:05;;;;;;;3.88;1.40;;;6.70;99.90;;;;;;5001367;28;20109;-43
2023/03/04 07:06:31;;;;;;;3.75;1.25;;;6.70;99.90;;;;;;5000865;28;20041;-43
2023/03/04 07:08:56;;;;;;;10.35;1.23;;;6.70;99.90;;;;;;5000863;28;20034;-44
2023/03/04 07:11:23;;;;;;;5.38;0.90;;;6.70;99.90;;;;;;4999977;28;20108;-43
2023/03/04 07:13:50;;;;;;;5.55;1.10;;;6.70;99.90;;;;;;4999613;28;20058;-43
2023/03/04 07:16:19;;;;;;;4.70;1.35;;;6.70;99.90;;;;;;4998789;28;20021;-43
2023/03/04 07:18:48;;;;;;;6.05;1.38;;;6.70;99.90;;;;;;5000327;28;20034;-42
2023/03/04 07:21:14;;;;;;;5.00;1.20;;;6.70;99.90;;;;;;4998388;28;20029;-43
2023/03/04 07:23:40;;;;;;;7.97;1.45;;;6.60;99.90;;;;;;5000209;28;20032;-43
2023/03/04 07:26:05;;;;;;;7.72;1.38;;;6.70;99.90;;;;;;4999135;28;20026;-44
2023/03/04 07:28:32;;;;;;;12.90;1.80;;;6.70;99.90;;;;;;5000369;28;20565;-43
2023/03/04 07:31:19;;;;;;;4.90;1.13;;;6.80;99.90;;;;;;4999827;28;20038;-43
2023/03/04 07:33:45;;;;;;;8.25;1.15;;;6.80;99.90;;;;;;4998731;28;20026;-42
2023/03/04 07:36:10;;;;;;;5.88;0.88;;;6.80;99.90;;;;;;4999328;28;20022;-42
2023/03/04 07:38:36;;;;;;;4.88;1.20;;;6.80;99.90;;;;;;4999989;28;20049;-42
2023/03/04 07:41:02;;;;;;;8.98;1.65;;;6.70;99.90;;;;;;4999202;28;20030;-43
2023/03/04 07:43:27;;;;;;;6.72;1.60;;;6.70;99.90;;;;;;4999865;28;20113;-42
2023/03/04 07:45:59;;;;;;;5.38;1.60;;;6.70;99.90;;;;;;5000187;28;20033;-42
2023/03/04 07:48:25;;;;;;;4.50;1.42;;;6.70;99.90;;;;;;4998049;28;20041;-43
2023/03/04 07:51:05;;;;;;;6.28;1.75;;;6.70;99.90;;;;;;4998567;28;20037;-44
2023/03/04 07:53:32;;;;;;;4.90;1.10;;;6.70;99.90;;;;;;4999984;28;20025;-42
2023/03/04 07:55:58;;;;;;;5.65;1.63;;;6.80;99.90;;;;;;4998739;28;20042;-43
2023/03/04 07:58:30;;;;;;;4.15;1.10;;;6.80;99.90;;;;;;4999373;28;20026;-43
2023/03/04 08:00:56;;;;;;;4.32;1.25;;;6.80;99.90;;;;;;4999749;28;20022;-42
2023/03/04 08:03:21;;;;;;;6.75;1.40;;;6.80;99.90;;;;;;4997979;28;20495;-43
2023/03/04 08:05:47;;;;;;;6.20;1.45;;;6.90;99.90;;;;;;4999281;28;20077;-43
2023/03/04 08:08:13;;;;;;;4.70;1.35;;;6.90;99.90;;;;;;4998824;28;20051;-42
2023/03/04 08:10:38;;;;;;;8.43;1.50;;;7.00;99.90;;;;;;4998998;28;20488;-43
2023/03/04 08:13:16;;;;;;;6.20;1.40;;;7.00;99.90;;;;;;4998723;28;20426;-44
2023/03/04 08:15:42;;;;;;;6.40;1.42;;;7.10;99.90;;;;;;4996148;28;20034;-42
2023/03/04 08:18:08;;;;;;;5.32;1.08;;;7.20;99.90;;;;;;4997915;28;20905;-43
2023/03/04 08:20:34;;;;;;;4.63;1.02;;;7.30;99.90;;;;;;5000281;28;20054;-42
2023/03/04 08:22:59;;;;;;;4.68;1.30;;;7.30;99.90;;;;;;4999362;28;20534;-43
2023/03/04 08:25:25;;;;;;;5.90;1.30;;;7.30;99.90;;;;;;4999518;28;20485;-43
2023/03/04 08:27:50;;;;;;;5.95;1.35;;;7.30;99.90;;;;;;4999224;28;20038;-42
2023/03/04 08:30:16;;;;;;;6.45;1.33;;;7.30;99.90;;;;;;4998007;28;20022;-44
2023/03/04 08:32:42;;;;;;;6.03;1.20;;;7.30;99.90;;;;;;4998679;28;20583;-43
2023/03/04 08:35:07;;;;;;;6.72;1.40;;;7.40;99.90;;;;;;4998647;28;20044;-43
2023/03/04 08:37:33;;;;;;;3.63;1.38;;;7.40;99.90;;;;;;4997889;28;20142;-43
2023/03/04 08:39:58;;;;;;;9.88;1.58;;;7.40;99.90;;;;;;4999767;28;20074;-42
2023/03/04 08:42:24;;;;;;;6.65;1.40;;;7.50;99.90;;;;;;4999560;28;20329;-43
2023/03/04 08:44:49;;;;;;;4.93;1.35;;;7.50;99.90;;;;;;4998984;28;20441;-43
2023/03/04 08:47:15;;;;;;;7.05;1.48;;;7.60;99.90;;;;;;4998570;28;20037;-42
2023/03/04 08:49:41;;;;;;;4.47;1.20;;;7.60;99.90;;;;;;4996352;28;20057;-42
2023/03/04 08:52:06;;;;;;;4.13;1.08;;;7.60;99.90;;;;;;5001340;28;20045;-44
2023/03/04 08:54:32;;;;;;;5.70;1.27;;;7.70;99.90;;;;;;5002894;28;20025;-43
2023/03/04 08:56:59;;;;;;;6.05;1.50;;;7.70;99.90;;;;;;5003434;28;20060;-43
2023/03/04 08:59:24;;;;;;;3.55;1.10;;;7.60;99.90;;;;;;5002756;28;20572;-43
2023/03/04 09:01:50;;;;;;;3.72;1.00;;;7.60;99.90;;;;;;5004352;28;20043;-43
2023/03/04 09:04:15;;;;;;;6.82;1.58;;;7.60;99.90;;;;;;5002773;28;20029;-42
2023/03/04 09:06:41;;;;;;;4.13;1.13;;;7.60;99.90;;;;;;5003571;28;20022;-43
2023/03/04 09:09:06;;;;;;;5.00;1.30;;;7.60;99.90;;;;;;5003650;28;20026;-43
2023/03/04 09:11:32;;;;;;;3.08;1.20;;;7.60;99.90;;;;;;5003838;28;20496;-44
2023/03/04 09:13:58;;;;;;;1.75;0.90;;;7.70;99.90;;;;;;5002696;28;20053;-42
2023/03/04 09:16:23;;;;;;;4.80;1.35;;;7.70;99.90;;;;;;5004266;28;20084;-42
2023/03/04 09:18:49;;;;;;;5.95;1.63;;;7.60;99.90;;;;;;5003582;28;20028;-42
2023/03/04 09:21:14;;;;;;;3.10;1.35;;;7.50;99.90;;;;;;5002483;28;20121;-43
2023/03/04 09:23:40;;;;;;;3.78;1.00;;;7.50;99.90;;;;;;5003432;28;20026;-43
2023/03/04 09:26:24;;;;;;;6.93;1.58;;;7.50;99.90;;;;;;5002756;28;20024;-41
2023/03/04 09:28:56;;;;;;;2.78;1.23;;;7.50;99.90;;;;;;5002098;28;20066;-43
2023/03/04 09:31:22;;;;;;;6.70;1.98;;;7.60;99.90;;;;;;5002201;28;20469;-42
2023/03/04 09:33:48;;;;;;;3.78;1.27;;;7.70;99.90;;;;;;5002050;28;20820;-42
2023/03/04 09:36:14;;;;;;;5.30;1.40;;;7.70;99.90;;;;;;5001846;28;20026;-43
2023/03/04 09:38:41;;;;;;;4.18;1.30;;;7.60;99.90;;;;;;5002311;28;20516;-41
2023/03/04 09:41:28;;;;;;;4.25;1.27;;;7.60;99.90;;;;;;5000238;28;20474;-43
2023/03/04 09:43:54;;;;;;;4.32;1.20;;;7.50;99.90;;;;;;4985012;28;20157;-43
2023/03/04 09:46:31;;;;;;;3.15;1.20;;;7.50;99.90;;;;;;5001992;28;20768;-43
2023/03/04 09:48:57;;;;;;;2.67;1.30;;;7.40;99.90;;;;;;5002395;28;20052;-43
2023/03/04 09:51:41;;;;;;;2.75;1.13;;;7.40;99.90;;;;;;5002049;28;20077;-43
2023/03/04 09:54:28;;;;;;;2.20;1.10;;;7.50;99.90;;;;;;5002410;28;20065;-43
2023/03/04 09:56:59;;;;;;;3.78;1.35;;;7.60;99.90;;;;;;5000437;28;20101;-43
2023/03/04 09:59:38;;;;;;;3.45;1.83;;;7.70;99.90;;;;;;5002426;28;20045;-42
2023/03/04 10:02:18;;;;;;;4.72;1.50;;;7.80;99.90;;;;;;5001397;28;20022;-43
2023/03/04 10:04:51;;;;;;;2.33;1.52;;;7.80;99.90;;;;;;5002599;28;20089;-42
2023/03/04 10:07:25;;;;;;;1.95;1.10;;;7.70;99.90;;;;;;5001937;28;20324;-43
2023/03/04 10:09:54;;;;;;;2.13;1.27;;;7.80;99.90;;;;;;5001795;28;20070;-44
2023/03/04 10:12:23;;;;;;;2.10;1.02;;;7.90;99.90;;;;;;5000994;28;20112;-43
2023/03/04 10:14:57;;;;;;;2.13;0.95;;;8.10;99.90;;;;;;5002924;28;20022;-42
2023/03/04 10:17:28;;;;;;;3.22;1.02;;;8.30;99.90;;;;;;4999882;28;20875;-43
2023/03/04 10:20:11;;;;;;;3.38;1.00;;;8.50;99.90;;;;;;5002063;28;20021;-42
2023/03/04 10:22:55;;;;;;;;;;;8.60;99.90;;;;;;4999999;28;20512;-42
2023/03/04 10:25:23;;;;;;;4.88;1.40;;;8.60;99.90;;;;;;5001237;28;19910;-42
2023/03/04 10:28:09;;;;;;;2.70;1.05;;;8.70;99.90;;;;;;5001402;28;20548;-42
2023/03/04 10:31:00;;;;;;;2.05;0.88;;;8.70;99.90;;;;;;5001096;28;20038;-43
2023/03/04 10:33:29;;;;;;;1.48;0.80;;;8.70;99.90;;;;;;4999509;28;20037;-42
2023/03/04 10:36:08;;;;;;;2.53;1.05;;;8.60;99.90;;;;;;5001635;28;20245;-42
2023/03/04 10:38:38;;;;;;;2.65;1.10;;;8.60;99.90;;;;;;5001325;28;20116;-42
2023/03/04 10:41:21;;;;;;;1.73;1.02;;;8.50;99.90;;;;;;5001004;28;20022;-43
2023/03/04 10:43:59;;;;;;;1.60;0.90;;;8.40;99.90;;;;;;4998925;28;20041;-43
2023/03/04 10:46:25;;;;;;;2.75;1.00;;;8.50;99.90;;;;;;5000092;28;20033;-43
2023/03/04 10:48:53;;;;;;;2.17;1.02;;;8.60;99.90;;;;;;5000807;28;20907;-43
2023/03/04 10:51:22;;;;;;;1.60;1.00;;;8.80;99.90;;;;;;4999150;28;20509;-43
2023/03/04 10:53:51;;;;;;;3.17;1.00;;;8.90;99.90;;;;;;4999896;28;20034;-43
2023/03/04 10:56:38;;;;;;;2.08;1.05;;;8.90;99.90;;;;;;4999781;28;20119;-43
2023/03/04 10:59:41;;;;;;;3.50;1.15;;;9.00;99.90;;;;;;4996566;28;20049;-43
2023/03/04 11:02:26;;;;;;;1.73;0.90;;;9.20;99.90;;;;;;5001095;28;20041;-44
2023/03/04 11:05:25;;;;;;;2.83;1.00;;;9.30;99.90;;;;;;4991759;28;20147;-43
2023/03/04 11:07:57;;;;;;;1.77;1.00;;;9.20;99.90;;;;;;5001015;28;20028;-44
2023/03/04 11:10:29;;;;;;;1.23;0.90;;;9.20;99.90;;;;;;4998890;28;20129;-43
2023/03/04 11:12:57;;;;;;;1.48;0.80;;;9.20;99.90;;;;;;4987872;28;20056;-43
2023/03/04 11:15:29;;;;;;;2.40;0.90;;;9.30;99.90;;;;;;5000319;28;20516;-43
2023/03/04 11:18:15;;;;;;;1.83;0.90;;;9.30;99.90;;;;;;5001239;28;20062;-43
2023/03/04 11:20:45;;;;;;;2.42;1.27;;;9.10;99.90;;;;;;5000283;28;20484;-44
2023/03/04 11:23:17;;;;;;;1.02;0.85;;;9.10;99.90;;;;;;4999378;28;20026;-42
2023/03/04 11:25:48;;;;;;;0.80;0.77;;;8.90;99.90;;;;;;5000806;28;20026;-44
2023/03/04 11:28:43;;;;;;;3.38;2.17;;;8.80;99.90;;;;;;4999862;28;20053;-42
2023/03/04 11:31:17;;;;;;;2.65;1.30;;;8.80;99.90;;;;;;4997409;28;20040;-43
2023/03/04 11:33:54;;;;;;;2.88;1.20;;;8.80;99.90;;;;;;4989225;28;20041;-42
2023/03/04 11:36:49;;;;;;;1.67;0.98;;;8.80;99.90;;;;;;5000248;28;20032;-42
2023/03/04 11:39:41;;;;;;;3.08;1.02;;;8.90;99.90;;;;;;4982476;28;20530;-43
2023/03/04 11:42:34;;;;;;;0.70;0.70;;;9.00;99.90;;;;;;4984695;28;20572;-42
2023/03/04 11:45:00;;;;;;;2.30;1.23;;;9.10;99.90;;;;;;4999687;28;20034;-42
2023/03/04 11:47:58;;;;;;;1.42;0.90;;;9.30;99.90;;;;;;4999240;28;20061;-43
2023/03/04 11:50:40;;;;;;;0.93;0.85;;;9.30;99.90;;;;;;5000421;28;20022;-43
2023/03/04 11:53:24;;;;;;;1.90;1.08;;;9.30;99.90;;;;;;4999363;28;20085;-43
2023/03/04 11:56:09;;;;;;;4.93;2.30;;;9.40;99.90;;;;;;4998403;28;20050;-43
2023/03/04 11:58:54;;;;;;;4.45;1.83;;;9.60;99.90;;;;;;5000155;28;20707;-43
2023/03/04 12:01:44;;;;;;;2.42;1.15;;;9.70;99.90;;;;;;4995365;28;20576;-43
2023/03/04 12:04:29;;;;;;;2.60;1.23;;;9.80;99.90;;;;;;4998959;28;20022;-42
2023/03/04 12:07:12;;;;;;;1.27;0.85;;;9.60;99.90;;;;;;4989942;28;20054;-43
2023/03/04 12:09:52;;;;;;;3.40;1.13;;;9.50;99.90;;;;;;4998993;28;20037;-43
2023/03/04 12:12:52;;;;;;;3.70;1.60;;;9.40;99.90;;;;;;4998868;28;20073;-43
2023/03/04 12:15:32;;;;;;;2.28;1.00;;;9.30;99.90;;;;;;4998546;28;20029;-44
2023/03/04 12:18:17;;;;;;;1.85;0.70;;;9.30;99.90;;;;;;4999339;28;20036;-44
2023/03/04 12:21:25;;;;;;;1.13;0.75;;;9.30;99.90;;;;;;4998733;28;20049;-43
2023/03/04 12:24:26;;;;;;;1.25;0.82;;;9.30;99.90;;;;;;4982044;28;20034;-43
2023/03/04 12:27:36;;;;;;;2.97;1.00;;;9.40;99.90;;;;;;5003399;28;20037;-43
2023/03/04 12:30:18;;;;;;;2.30;0.82;;;9.50;99.90;;;;;;4982492;28;20108;-43
2023/03/04 12:32:53;;;;;;;2.50;1.23;;;9.60;99.90;;;;;;4994483;28;20155;-43
2023/03/04 12:35:31;;;;;;;3.58;1.05;;;9.60;99.90;;;;;;5003015;28;20024;-42
2023/03/04 12:38:25;;;;;;;3.30;1.15;;;9.60;99.90;;;;;;4993495;28;20040;-43
2023/03/04 12:41:17;;;;;;;4.13;1.10;;;9.50;99.90;;;;;;5003966;28;20538;-42
2023/03/04 12:43:54;;;;;;;1.73;1.17;;;9.40;99.90;;;;;;5002743;28;20170;-42
2023/03/04 12:46:41;;;;;;;3.60;0.95;;;9.30;99.90;;;;;;5002742;28;20026;-42
2023/03/04 12:49:34;;;;;;;5.63;1.45;;;9.10;99.90;;;;;;5003379;28;20041;-42
2023/03/04 12:52:22;;;;;;;6.65;1.48;;;9.00;99.90;;;;;;5002967;28;20049;-42
2023/03/04 12:55:02;;;;;;;9.27;1.50;;;8.80;99.90;;;;;;4984693;28;20053;-42
2023/03/04 12:57:30;;;;;;;2.65;1.00;;;8.80;99.90;;;;;;5000387;28;20045;-43
2023/03/04 13:00:11;;;;;;;7.97;1.95;;;8.70;99.90;;;;;;5003356;28;20029;-44
2023/03/04 13:03:02;;;;;;;3.53;1.27;;;8.70;99.90;;;;;;5001365;28;20038;-44
2023/03/04 13:05:46;;;;;;;7.35;1.20;;;8.80;99.90;;;;;;5002130;28;20034;-43
2023/03/04 13:08:26;;;;;;;5.82;1.48;;;8.80;99.90;;;;;;4997804;28;20033;-42
2023/03/04 13:10:52;;;;;;;6.32;1.10;;;8.80;99.90;;;;;;5002776;28;20072;-44
2023/03/04 13:14:00;;;;;;;6.85;1.20;;;8.80;99.90;;;;;;5001465;28;20036;-42